Time;durP1;ratioP1;P1;durP2;ratioP2;P2;SDS_P1;SDS_P2;PMS_P1;PMS_P2;Temp;Humidity;BMP_temperature;BMP_pressure;BME280_temperature;BME280_humidity;BME280_pressure;Samples;Min_cycle;Max_cycle;Signal;HPM_P1;HPM_P2
2022/12/02 00:00:23;;;;;;;57.07;25.80;;;4.10;99.90;;;;;;5009296;28;20257;-79
2022/12/02 00:02:49;;;;;;;57.07;24.60;;;4.10;99.90;;;;;;5010559;28;20455;-78
2022/12/02 00:05:14;;;;;;;51.83;23.57;;;4.10;99.90;;;;;;5009218;28;20415;-79
2022/12/02 00:07:47;;;;;;;49.33;24.43;;;4.10;99.90;;;;;;5010481;28;20419;-78
2022/12/02 00:10:28;;;;;;;64.17;26.10;;;4.10;99.90;;;;;;5009158;28;20195;-78
2022/12/02 00:12:55;;;;;;;56.03;25.33;;;4.20;99.90;;;;;;5008819;28;20438;-78
2022/12/02 00:15:37;;;;;;;52.40;23.83;;;4.10;99.90;;;;;;4992518;28;20419;-77
2022/12/02 00:18:03;;;;;;;56.27;24.67;;;4.10;99.90;;;;;;5008577;28;20440;-79
2022/12/02 00:20:29;;;;;;;46.97;21.53;;;4.10;99.90;;;;;;5008763;28;20469;-78
2022/12/02 00:22:54;;;;;;;43.60;21.30;;;4.10;99.90;;;;;;5008615;28;20533;-79
2022/12/02 00:25:20;;;;;;;51.83;24.73;;;4.20;99.90;;;;;;5008590;28;20181;-78
2022/12/02 00:27:45;;;;;;;49.20;23.00;;;4.20;99.90;;;;;;5008725;28;20189;-79
2022/12/02 00:30:11;;;;;;;45.23;23.17;;;4.10;99.90;;;;;;5010467;28;20196;-79
2022/12/02 00:32:37;;;;;;;56.15;24.92;;;4.10;99.90;;;;;;5010400;28;20226;-78
2022/12/02 00:35:03;;;;;;;60.37;24.73;;;4.10;99.90;;;;;;5008274;28;20267;-78
2022/12/02 00:37:28;;;;;;;66.87;24.97;;;4.10;99.90;;;;;;5009026;28;20562;-78
2022/12/02 00:39:54;;;;;;;50.17;21.73;;;4.10;99.90;;;;;;5010180;28;20428;-77
2022/12/02 00:42:20;;;;;;;51.87;23.03;;;4.20;99.90;;;;;;5010341;28;20295;-77
2022/12/02 00:47:29;;;;;;;51.10;22.80;;;4.20;99.90;;;;;;4995374;28;20307;-78
2022/12/02 00:49:55;;;;;;;52.53;23.57;;;4.20;99.90;;;;;;5009828;28;20488;-78
2022/12/02 00:52:20;;;;;;;54.83;24.03;;;4.20;99.90;;;;;;5010148;28;20204;-78
2022/12/02 00:54:46;;;;;;;55.57;24.53;;;4.10;99.90;;;;;;5010107;28;20185;-78
2022/12/02 00:57:11;;;;;;;53.47;23.87;;;4.00;99.90;;;;;;5010335;28;20191;-78
2022/12/02 00:59:37;;;;;;;58.73;25.10;;;4.00;99.90;;;;;;5008968;28;20196;-78
2022/12/02 01:02:03;;;;;;;56.90;25.03;;;4.00;99.90;;;;;;5010486;28;20209;-78
2022/12/02 01:04:28;;;;;;;57.40;25.20;;;4.00;99.90;;;;;;5009295;28;20191;-78
2022/12/02 01:06:54;;;;;;;65.70;26.40;;;4.00;99.90;;;;;;5009288;28;20267;-77
2022/12/02 01:09:19;;;;;;;54.40;24.77;;;4.00;99.90;;;;;;5008884;28;20211;-77
2022/12/02 01:11:45;;;;;;;63.10;27.90;;;4.00;99.90;;;;;;5010069;28;20712;-77
2022/12/02 01:14:11;;;;;;;63.30;25.90;;;4.00;99.90;;;;;;5010347;28;20185;-77
2022/12/02 01:16:36;;;;;;;68.77;26.40;;;4.00;99.90;;;;;;5010090;28;20182;-78
2022/12/02 01:19:02;;;;;;;60.83;24.60;;;4.00;99.90;;;;;;5008774;28;20232;-79
2022/12/02 01:21:28;;;;;;;64.00;25.10;;;4.00;99.90;;;;;;4992423;28;20201;-79
2022/12/02 01:23:53;;;;;;;50.80;24.37;;;4.10;99.90;;;;;;5008590;28;20239;-79
2022/12/02 01:26:19;;;;;;;60.50;24.57;;;4.10;99.90;;;;;;5009828;28;20652;-78
2022/12/02 01:28:45;;;;;;;60.27;25.53;;;4.10;99.90;;;;;;5010029;28;20188;-78
2022/12/02 01:31:10;;;;;;;47.33;23.07;;;4.10;99.90;;;;;;5009705;28;20200;-78
2022/12/02 01:33:36;;;;;;;56.23;25.40;;;4.10;99.90;;;;;;5008588;28;20212;-78
2022/12/02 01:36:01;;;;;;;50.83;23.33;;;4.00;99.90;;;;;;5008236;28;20199;-78
2022/12/02 01:38:27;;;;;;;46.70;22.70;;;4.10;99.90;;;;;;5009542;28;20207;-77
2022/12/02 01:40:53;;;;;;;61.10;25.90;;;4.10;99.90;;;;;;5009660;28;20257;-78
2022/12/02 01:43:18;;;;;;;54.40;24.07;;;4.10;99.90;;;;;;5009238;28;20220;-78
2022/12/02 01:45:44;;;;;;;49.43;22.90;;;4.10;99.90;;;;;;5007936;28;20728;-79
2022/12/02 01:48:10;;;;;;;61.97;24.30;;;4.00;99.90;;;;;;4994967;28;20188;-77
2022/12/02 01:50:36;;;;;;;60.65;26.15;;;4.10;99.90;;;;;;4995360;28;20281;-77
2022/12/02 01:53:02;;;;;;;55.10;22.73;;;4.00;99.90;;;;;;4994758;28;20298;-78
2022/12/02 01:55:28;;;;;;;50.70;23.47;;;4.00;99.90;;;;;;5012727;28;20192;-78
2022/12/02 01:57:55;;;;;;;57.30;24.77;;;3.90;99.90;;;;;;5011620;28;20968;-79
2022/12/02 02:00:21;;;;;;;62.57;24.10;;;4.00;99.90;;;;;;5011402;28;20541;-79
2022/12/02 02:02:47;;;;;;;53.33;23.47;;;4.00;99.90;;;;;;5011124;28;21203;-78
2022/12/02 02:05:16;;;;;;;52.07;22.73;;;4.00;99.90;;;;;;5011094;28;20192;-79
2022/12/02 02:07:45;;;;;;;59.40;24.47;;;4.10;99.90;;;;;;5012438;28;20204;-79
2022/12/02 02:10:11;;;;;;;68.90;25.50;;;4.00;99.90;;;;;;5012847;28;20414;-79
2022/12/02 02:12:37;;;;;;;61.00;25.43;;;4.00;99.90;;;;;;4994346;28;20200;-78
2022/12/02 02:15:05;;;;;;;47.50;23.00;;;3.90;99.90;;;;;;4994619;28;20434;-78
2022/12/02 02:17:31;;;;;;;56.60;24.92;;;4.00;99.90;;;;;;5010362;28;20436;-79
2022/12/02 02:19:57;;;;;;;52.33;24.27;;;4.00;99.90;;;;;;5012046;28;20192;-79
2022/12/02 02:22:30;;;;;;;47.10;21.77;;;4.00;99.90;;;;;;4994247;28;20432;-79
2022/12/02 02:24:55;;;;;;;57.03;25.73;;;4.00;99.90;;;;;;5010692;28;20183;-78
2022/12/02 02:27:21;;;;;;;65.43;26.37;;;3.90;99.90;;;;;;5010431;28;21034;-79
2022/12/02 02:29:47;;;;;;;60.97;24.83;;;3.90;99.90;;;;;;5010365;28;20252;-79
2022/12/02 02:32:13;;;;;;;61.53;23.80;;;3.90;99.90;;;;;;5010619;28;20440;-78
2022/12/02 02:34:39;;;;;;;54.73;24.90;;;4.00;99.90;;;;;;5010550;28;20420;-78
2022/12/02 02:37:05;;;;;;;50.50;23.90;;;4.00;99.90;;;;;;5010275;28;20427;-79
2022/12/02 02:39:31;;;;;;;55.90;23.67;;;4.00;99.90;;;;;;5012964;28;20268;-79
2022/12/02 02:41:57;;;;;;;52.07;23.50;;;4.00;99.90;;;;;;5010590;28;20216;-79
2022/12/02 02:44:25;;;;;;;51.83;24.43;;;4.00;99.90;;;;;;4978261;28;20435;-78
2022/12/02 02:46:50;;;;;;;50.47;23.60;;;4.00;99.90;;;;;;5010658;28;20475;-79
2022/12/02 02:49:16;;;;;;;61.33;24.13;;;4.00;99.90;;;;;;5010544;28;20919;-78
2022/12/02 02:51:42;;;;;;;51.40;23.53;;;4.00;99.90;;;;;;4993833;28;20681;-77
2022/12/02 02:54:07;;;;;;;60.20;25.10;;;4.00;99.90;;;;;;5010265;28;20311;-78
2022/12/02 02:56:33;;;;;;;77.20;26.20;;;4.00;99.90;;;;;;5011738;28;20614;-78
2022/12/02 02:58:59;;;;;;;50.63;23.47;;;4.10;99.90;;;;;;5009665;28;20185;-78
2022/12/02 03:01:29;;;;;;;63.53;25.27;;;4.00;99.90;;;;;;5011808;28;20204;-78
2022/12/02 03:04:00;;;;;;;60.27;24.93;;;4.00;99.90;;;;;;5010528;28;20212;-79
2022/12/02 03:06:28;;;;;;;52.53;24.75;;;4.00;99.90;;;;;;5011680;28;20529;-79
2022/12/02 03:08:54;;;;;;;52.27;24.87;;;3.90;99.90;;;;;;5011328;28;20292;-79
2022/12/02 03:11:20;;;;;;;57.87;23.80;;;4.00;99.90;;;;;;5011282;28;21029;-78
2022/12/02 03:13:47;;;;;;;53.07;25.20;;;3.90;99.90;;;;;;5009813;28;20510;-79
2022/12/02 03:16:15;;;;;;;55.77;24.10;;;3.90;99.90;;;;;;5009896;28;20778;-79
2022/12/02 03:18:43;;;;;;;63.47;26.40;;;4.00;99.90;;;;;;5011251;28;20469;-78
2022/12/02 03:21:09;;;;;;;53.83;24.07;;;4.00;99.90;;;;;;5011114;28;20508;-78
2022/12/02 03:23:35;;;;;;;63.97;25.27;;;4.00;99.90;;;;;;5011138;28;20416;-77
2022/12/02 03:26:02;;;;;;;58.80;24.57;;;4.00;99.90;;;;;;5011159;28;21005;-77
2022/12/02 03:28:28;;;;;;;47.85;23.80;;;4.00;99.90;;;;;;5014190;28;20420;-80
2022/12/02 03:30:55;;;;;;;57.83;24.60;;;4.00;99.90;;;;;;5012458;28;20638;-79
2022/12/02 03:33:21;;;;;;;72.07;24.00;;;4.00;99.90;;;;;;5012593;28;20434;-79
2022/12/02 03:35:48;;;;;;;61.13;24.00;;;4.00;99.90;;;;;;5013609;28;20191;-79
2022/12/02 03:38:14;;;;;;;53.00;24.97;;;4.00;99.90;;;;;;4995469;28;20620;-79
2022/12/02 03:40:39;;;;;;;56.13;23.13;;;4.00;99.90;;;;;;5011599;28;20538;-79
2022/12/02 03:43:05;;;;;;;57.20;25.83;;;3.90;99.90;;;;;;4994993;28;20448;-79
2022/12/02 03:45:32;;;;;;;57.53;24.43;;;3.90;99.90;;;;;;5012564;28;20219;-79
2022/12/02 03:47:58;;;;;;;68.10;24.80;;;4.00;99.90;;;;;;5011234;28;20180;-78
2022/12/02 03:50:24;;;;;;;53.30;25.50;;;4.00;99.90;;;;;;5009880;28;20539;-79
2022/12/02 03:52:49;;;;;;;59.27;24.70;;;4.00;99.90;;;;;;4992784;28;20555;-77
2022/12/02 03:55:15;;;;;;;58.60;24.00;;;4.00;99.90;;;;;;5011913;28;20195;-78
2022/12/02 03:57:41;;;;;;;54.17;24.73;;;4.00;99.90;;;;;;5009642;28;20512;-78
2022/12/02 04:00:09;;;;;;;54.10;23.97;;;4.10;99.90;;;;;;4992311;28;20187;-77
2022/12/02 04:02:35;;;;;;;64.47;26.63;;;4.00;99.90;;;;;;5009885;28;20242;-77
2022/12/02 04:05:00;;;;;;;62.20;24.70;;;4.00;99.90;;;;;;5009955;28;20454;-77
2022/12/02 04:07:26;;;;;;;54.90;24.07;;;3.90;99.90;;;;;;5009857;28;20215;-77
2022/12/02 04:09:51;;;;;;;67.43;26.93;;;4.00;99.90;;;;;;5008628;28;20207;-78
2022/12/02 04:12:17;;;;;;;61.93;26.73;;;4.00;99.90;;;;;;5008484;28;20298;-77
2022/12/02 04:14:43;;;;;;;76.53;26.60;;;3.90;99.90;;;;;;5008607;28;20238;-77
2022/12/02 04:17:09;;;;;;;62.97;26.23;;;4.00;99.90;;;;;;4992196;28;20196;-77
2022/12/02 04:19:34;;;;;;;62.43;25.93;;;4.00;99.90;;;;;;5009744;28;20647;-77
2022/12/02 04:22:00;;;;;;;62.23;25.07;;;4.00;99.90;;;;;;5009693;28;20444;-77
2022/12/02 04:24:27;;;;;;;53.93;25.53;;;3.90;99.90;;;;;;5009898;28;20193;-76
2022/12/02 04:26:53;;;;;;;66.17;26.53;;;3.90;99.90;;;;;;4991980;28;20482;-77
2022/12/02 04:29:19;;;;;;;64.50;24.77;;;3.90;99.90;;;;;;5008105;28;20425;-76
2022/12/02 04:31:44;;;;;;;50.87;24.60;;;3.80;99.90;;;;;;5007952;28;20452;-76
2022/12/02 04:34:10;;;;;;;54.33;26.40;;;3.80;99.90;;;;;;5009835;28;20181;-77
2022/12/02 04:36:35;;;;;;;69.80;26.93;;;3.90;99.90;;;;;;5009602;28;20214;-76
2022/12/02 04:39:01;;;;;;;57.00;24.73;;;3.90;99.90;;;;;;4975898;28;20737;-77
2022/12/02 04:41:28;;;;;;;55.17;25.80;;;3.90;99.90;;;;;;5007823;28;20212;-76
2022/12/02 04:43:54;;;;;;;62.07;24.47;;;3.80;99.90;;;;;;5009520;28;20968;-77
2022/12/02 04:46:19;;;;;;;82.97;27.47;;;3.80;99.90;;;;;;5007888;28;20479;-76
2022/12/02 04:48:45;;;;;;;61.33;24.73;;;3.80;99.90;;;;;;4991689;28;20439;-77
2022/12/02 04:51:11;;;;;;;66.13;25.80;;;3.80;99.90;;;;;;5008065;28;20975;-76
2022/12/02 04:53:36;;;;;;;58.27;25.40;;;3.90;99.90;;;;;;4991572;28;20225;-77
2022/12/02 04:56:02;;;;;;;53.10;26.33;;;3.90;99.90;;;;;;5010181;28;20192;-76
2022/12/02 04:58:27;;;;;;;51.80;23.20;;;3.90;99.90;;;;;;5009953;28;20300;-77
2022/12/02 05:00:53;;;;;;;72.20;25.53;;;3.80;99.90;;;;;;5009391;28;20220;-77
2022/12/02 05:03:19;;;;;;;63.83;26.00;;;3.80;99.90;;;;;;5009437;28;20214;-77
2022/12/02 05:05:44;;;;;;;59.10;24.40;;;3.80;99.90;;;;;;5007760;28;20204;-77
2022/12/02 05:08:10;;;;;;;64.77;25.07;;;3.80;99.90;;;;;;5009101;28;20674;-77
2022/12/02 05:10:35;;;;;;;50.60;24.27;;;3.80;99.90;;;;;;5009242;28;20191;-77
2022/12/02 05:13:01;;;;;;;58.87;26.13;;;3.70;99.90;;;;;;4991396;28;20967;-77
2022/12/02 05:15:27;;;;;;;52.60;23.53;;;3.70;99.90;;;;;;4974241;28;20935;-77
2022/12/02 05:17:53;;;;;;;56.57;24.80;;;3.80;99.90;;;;;;5006454;28;20202;-78
2022/12/02 05:20:18;;;;;;;57.90;23.83;;;3.70;99.90;;;;;;5007865;28;20271;-77
2022/12/02 05:22:44;;;;;;;69.33;27.20;;;3.80;99.90;;;;;;4995926;28;20450;-77
2022/12/02 05:25:09;;;;;;;55.07;22.30;;;3.80;99.90;;;;;;5013072;28;20283;-78
2022/12/02 05:27:35;;;;;;;63.20;24.77;;;3.80;99.90;;;;;;4997030;28;20240;-77
2022/12/02 05:30:01;;;;;;;48.47;24.50;;;3.80;99.90;;;;;;4996618;28;20564;-77
2022/12/02 05:32:26;;;;;;;68.40;25.30;;;3.90;99.90;;;;;;5014669;28;20212;-78
2022/12/02 05:34:52;;;;;;;61.97;24.80;;;3.90;99.90;;;;;;5012802;28;20493;-77
2022/12/02 05:37:18;;;;;;;62.07;24.60;;;3.90;99.90;;;;;;4996200;28;20191;-77
2022/12/02 05:39:43;;;;;;;50.67;23.33;;;3.90;99.90;;;;;;5014271;28;20200;-77
2022/12/02 05:42:13;;;;;;;59.57;25.33;;;3.80;99.90;;;;;;4995958;28;20215;-79
2022/12/02 05:44:41;;;;;;;68.53;24.27;;;3.80;99.90;;;;;;5012399;28;20228;-77
2022/12/02 05:47:11;;;;;;;48.40;23.90;;;3.80;99.90;;;;;;4996212;28;21042;-78
2022/12/02 05:49:38;;;;;;;67.73;26.80;;;3.80;99.90;;;;;;5013972;28;20448;-77
2022/12/02 05:52:19;;;;;;;52.83;25.13;;;3.80;99.90;;;;;;5013719;28;20444;-78
2022/12/02 05:54:45;;;;;;;59.10;24.17;;;3.80;99.90;;;;;;5012321;28;20780;-77
2022/12/02 05:57:12;;;;;;;72.00;27.70;;;3.90;99.90;;;;;;4995953;28;20474;-77
2022/12/02 05:59:37;;;;;;;69.20;25.90;;;3.80;99.90;;;;;;5012434;28;20196;-77
2022/12/02 06:02:21;;;;;;;69.43;26.20;;;3.80;99.90;;;;;;4995971;28;20440;-77
2022/12/02 06:04:47;;;;;;;53.93;24.17;;;3.80;99.90;;;;;;5014183;28;20185;-77
2022/12/02 06:07:13;;;;;;;67.17;25.23;;;3.80;99.90;;;;;;4995756;28;20876;-77
2022/12/02 06:09:38;;;;;;;63.17;25.60;;;3.80;99.90;;;;;;5012089;28;20198;-77
2022/12/02 06:12:16;;;;;;;70.97;25.67;;;3.80;99.90;;;;;;5011825;28;20216;-78
2022/12/02 06:14:50;;;;;;;59.40;24.20;;;3.80;99.90;;;;;;5013781;28;20598;-78
2022/12/02 06:17:17;;;;;;;69.60;25.57;;;3.80;99.90;;;;;;5012023;28;20505;-77
2022/12/02 06:19:52;;;;;;;54.50;24.23;;;3.80;99.90;;;;;;5013599;28;20454;-78
2022/12/02 06:22:30;;;;;;;56.88;24.27;;;3.80;99.90;;;;;;5013976;28;20433;-79
2022/12/02 06:25:00;;;;;;;63.10;25.80;;;3.90;99.90;;;;;;5014145;28;20598;-78
2022/12/02 06:27:27;;;;;;;66.57;25.70;;;3.90;99.90;;;;;;5012023;28;20465;-78
2022/12/02 06:29:58;;;;;;;56.22;24.73;;;3.90;99.90;;;;;;5013720;28;20788;-78
2022/12/02 06:32:35;;;;;;;62.00;24.23;;;3.80;99.90;;;;;;5011568;28;20205;-78
2022/12/02 06:35:15;;;;;;;66.33;25.13;;;3.80;99.90;;;;;;5010355;28;20862;-78
2022/12/02 06:37:41;;;;;;;55.45;23.45;;;3.90;99.90;;;;;;5011343;28;20421;-78
2022/12/02 06:40:20;;;;;;;58.85;26.35;;;3.90;99.90;;;;;;5011135;28;20760;-78
2022/12/02 06:42:46;;;;;;;54.53;24.50;;;3.90;99.90;;;;;;5011050;28;20215;-77
2022/12/02 06:45:27;;;;;;;53.93;25.50;;;3.90;99.90;;;;;;5010895;28;20422;-77
2022/12/02 06:48:18;;;;;;;54.78;25.27;;;3.90;99.90;;;;;;5009743;28;20193;-78
2022/12/02 06:50:46;;;;;;;58.43;24.83;;;3.90;99.90;;;;;;5000870;28;20193;-77
2022/12/02 06:53:29;;;;;;;60.83;25.20;;;3.90;99.90;;;;;;4992567;28;20447;-77
2022/12/02 06:56:20;;;;;;;71.23;26.93;;;3.90;99.90;;;;;;5009919;28;20408;-78
2022/12/02 06:58:50;;;;;;;70.93;27.30;;;3.80;99.90;;;;;;5010086;28;20942;-79
2022/12/02 07:01:31;;;;;;;61.10;24.07;;;3.90;99.90;;;;;;5009050;28;20450;-79
2022/12/02 07:04:09;;;;;;;50.13;24.17;;;3.90;99.90;;;;;;5010263;28;21023;-78
2022/12/02 07:06:41;;;;;;;58.37;23.53;;;4.00;99.90;;;;;;5010984;28;20576;-78
2022/12/02 07:09:37;;;;;;;66.90;25.30;;;4.00;99.90;;;;;;5010430;28;20423;-78
2022/12/02 07:12:09;;;;;;;63.53;26.43;;;3.90;99.90;;;;;;5010256;28;20436;-78
2022/12/02 07:14:56;;;;;;;70.90;25.33;;;4.00;99.90;;;;;;5011102;28;20422;-79
2022/12/02 07:17:33;;;;;;;57.15;24.60;;;4.00;99.90;;;;;;5010533;28;20435;-78
2022/12/02 07:20:05;;;;;;;54.50;23.90;;;3.90;99.90;;;;;;5008978;28;20192;-78
2022/12/02 07:22:33;;;;;;;91.40;27.48;;;3.90;99.90;;;;;;5008546;28;20212;-78
2022/12/02 07:25:33;;;;;;;58.07;24.53;;;3.90;99.90;;;;;;5010427;28;20185;-78
2022/12/02 07:27:59;;;;;;;78.25;26.60;;;3.90;99.90;;;;;;5008806;28;20439;-78
2022/12/02 07:30:33;;;;;;;66.70;25.03;;;3.90;99.90;;;;;;5010708;28;20181;-79
2022/12/02 07:33:00;;;;;;;72.67;25.57;;;4.00;99.90;;;;;;5010451;28;20527;-79
2022/12/02 07:35:26;;;;;;;76.93;26.67;;;4.00;99.90;;;;;;5010646;28;20408;-77
2022/12/02 07:37:51;;;;;;;57.23;26.13;;;3.90;99.90;;;;;;5010331;28;20466;-77
2022/12/02 07:40:18;;;;;;;57.97;26.97;;;4.00;99.90;;;;;;5009132;28;20423;-78
2022/12/02 07:42:44;;;;;;;74.93;28.57;;;4.00;99.90;;;;;;5009250;28;20201;-78
2022/12/02 07:45:11;;;;;;;58.33;25.37;;;4.00;99.90;;;;;;5008776;28;20461;-78
2022/12/02 07:47:36;;;;;;;57.05;24.98;;;4.00;99.90;;;;;;5008982;28;20690;-78
2022/12/02 07:50:03;;;;;;;57.90;26.47;;;4.00;99.90;;;;;;5010293;28;20290;-79
2022/12/02 07:52:28;;;;;;;61.23;28.00;;;4.10;99.90;;;;;;5008453;28;21045;-78
2022/12/02 07:54:54;;;;;;;70.80;31.50;;;4.10;99.90;;;;;;5008436;28;20430;-78
2022/12/02 07:57:20;;;;;;;65.07;26.80;;;4.10;99.90;;;;;;5009727;28;20197;-78
2022/12/02 07:59:46;;;;;;;57.87;24.37;;;4.10;99.90;;;;;;5009638;28;20606;-77
2022/12/02 08:02:12;;;;;;;52.23;24.73;;;4.10;99.90;;;;;;5007981;28;20478;-78
2022/12/02 08:04:37;;;;;;;56.97;25.80;;;4.10;99.90;;;;;;5008125;28;20187;-79
2022/12/02 08:07:03;;;;;;;57.33;25.80;;;4.20;99.90;;;;;;5007687;28;20216;-77
2022/12/02 08:09:29;;;;;;;48.27;22.83;;;4.20;99.90;;;;;;5009431;28;20189;-78
2022/12/02 08:11:54;;;;;;;56.47;24.40;;;4.20;99.90;;;;;;4991340;28;20208;-78
2022/12/02 08:14:20;;;;;;;48.07;22.50;;;4.10;99.90;;;;;;5007644;28;20973;-78
2022/12/02 08:16:45;;;;;;;58.47;26.00;;;4.20;99.90;;;;;;5007606;28;20700;-77
2022/12/02 08:19:11;;;;;;;67.07;31.80;;;4.30;99.90;;;;;;5007973;28;20713;-78
2022/12/02 08:21:39;;;;;;;60.67;27.10;;;4.20;99.90;;;;;;5007716;28;20690;-78
2022/12/02 08:24:05;;;;;;;51.87;24.77;;;4.20;99.90;;;;;;5007549;28;20430;-77
2022/12/02 08:26:31;;;;;;;55.83;25.97;;;4.20;99.90;;;;;;5008751;28;20475;-79
2022/12/02 08:28:56;;;;;;;45.27;21.20;;;4.20;99.90;;;;;;4990948;28;20431;-78
2022/12/02 08:31:22;;;;;;;48.00;24.33;;;4.30;99.90;;;;;;5007363;28;20289;-78
2022/12/02 08:33:49;;;;;;;45.53;23.73;;;4.30;99.90;;;;;;5008988;28;20190;-78
2022/12/02 08:36:14;;;;;;;56.10;23.17;;;4.30;99.90;;;;;;5008715;28;20616;-78
2022/12/02 08:38:41;;;;;;;64.40;24.47;;;4.20;99.90;;;;;;5008927;28;20518;-78
2022/12/02 08:41:06;;;;;;;55.57;24.50;;;4.20;99.90;;;;;;5008719;28;20201;-78
2022/12/02 08:43:32;;;;;;;45.80;21.60;;;4.30;99.90;;;;;;5008865;28;20768;-78
2022/12/02 08:45:58;;;;;;;54.80;22.00;;;4.30;99.90;;;;;;5008827;28;20267;-78
2022/12/02 08:48:24;;;;;;;49.73;20.73;;;4.30;99.90;;;;;;5007045;28;20423;-78
2022/12/02 08:50:49;;;;;;;49.47;20.07;;;4.40;99.90;;;;;;5009159;28;20724;-77
2022/12/02 08:53:15;;;;;;;45.77;20.43;;;4.40;99.90;;;;;;4991153;28;20195;-78
2022/12/02 08:55:41;;;;;;;45.33;23.47;;;4.30;99.90;;;;;;5006379;28;20971;-78
2022/12/02 08:58:07;;;;;;;41.67;21.33;;;4.30;99.90;;;;;;5006873;28;20185;-77
2022/12/02 09:00:32;;;;;;;43.87;22.07;;;4.40;99.90;;;;;;5007133;28;20185;-78
2022/12/02 09:02:58;;;;;;;45.20;19.63;;;4.30;99.90;;;;;;5008356;28;20440;-77
2022/12/02 09:05:24;;;;;;;44.50;20.17;;;4.40;99.90;;;;;;5006908;28;20607;-78
2022/12/02 09:07:49;;;;;;;39.03;20.10;;;4.30;99.90;;;;;;5008303;28;20200;-78
2022/12/02 09:10:15;;;;;;;43.93;19.37;;;4.30;99.90;;;;;;4990605;28;20767;-78
2022/12/02 09:12:41;;;;;;;40.83;18.40;;;4.30;99.90;;;;;;5007587;28;20205;-78
2022/12/02 09:15:07;;;;;;;40.47;19.10;;;4.30;99.90;;;;;;5010880;28;20438;-78
2022/12/02 09:17:33;;;;;;;45.77;23.67;;;4.40;99.90;;;;;;5009877;28;20590;-78
2022/12/02 09:19:58;;;;;;;35.97;16.80;;;4.30;99.90;;;;;;5009921;28;20404;-77
2022/12/02 09:22:24;;;;;;;34.93;17.23;;;4.30;99.90;;;;;;5012003;28;20451;-77
2022/12/02 09:24:50;;;;;;;33.73;16.90;;;4.40;99.90;;;;;;5033908;28;20177;-77
2022/12/02 09:27:15;;;;;;;28.13;16.50;;;4.40;99.90;;;;;;5032823;28;20228;-77
2022/12/02 09:29:41;;;;;;;46.60;26.63;;;4.40;99.90;;;;;;5033834;28;20183;-77
2022/12/02 09:32:07;;;;;;;39.93;19.30;;;4.50;99.90;;;;;;5032583;28;20204;-78
2022/12/02 09:34:32;;;;;;;39.20;17.53;;;4.50;99.90;;;;;;5009261;28;20202;-77
2022/12/02 09:36:58;;;;;;;31.93;16.53;;;4.40;99.90;;;;;;5007365;28;20432;-78
2022/12/02 09:39:23;;;;;;;33.70;16.93;;;4.60;99.90;;;;;;5008341;28;20556;-78
2022/12/02 09:41:49;;;;;;;37.93;17.07;;;4.50;99.90;;;;;;5008598;28;20708;-78
2022/12/02 09:44:15;;;;;;;28.90;15.93;;;4.50;99.90;;;;;;5007288;28;20196;-77
2022/12/02 09:46:41;;;;;;;27.47;15.67;;;4.50;99.90;;;;;;4991005;28;20227;-78
2022/12/02 09:49:06;;;;;;;33.67;15.33;;;4.50;99.90;;;;;;4991108;28;20287;-78
2022/12/02 09:51:33;;;;;;;29.87;16.70;;;4.50;99.90;;;;;;5008644;28;20294;-78
2022/12/02 09:53:59;;;;;;;35.33;16.97;;;4.50;99.90;;;;;;5008673;28;20561;-78
2022/12/02 09:56:25;;;;;;;32.60;16.63;;;4.40;99.90;;;;;;5008853;28;20412;-78
2022/12/02 09:58:53;;;;;;;40.87;19.50;;;4.40;99.90;;;;;;4991198;28;20522;-78
2022/12/02 10:01:19;;;;;;;37.30;18.40;;;4.30;99.90;;;;;;5008458;28;20586;-78
2022/12/02 10:03:49;;;;;;;33.07;16.57;;;4.40;99.90;;;;;;5008659;28;20458;-78
2022/12/02 10:06:26;;;;;;;32.67;15.57;;;4.40;99.90;;;;;;5008238;28;20470;-78
2022/12/02 10:08:54;;;;;;;27.23;14.30;;;4.50;99.90;;;;;;5010975;28;20423;-77
2022/12/02 10:11:26;;;;;;;29.73;16.13;;;4.50;99.90;;;;;;5010786;28;20928;-77
2022/12/02 10:13:52;;;;;;;29.33;16.27;;;4.60;99.90;;;;;;5012495;28;21292;-78
2022/12/02 10:16:17;;;;;;;30.10;15.23;;;4.60;99.90;;;;;;5011121;28;20491;-78
2022/12/02 10:18:44;;;;;;;31.60;16.50;;;4.60;99.90;;;;;;5010845;28;21062;-78
2022/12/02 10:21:09;;;;;;;29.70;15.00;;;4.50;99.90;;;;;;5010736;28;20772;-78
2022/12/02 10:23:52;;;;;;;33.10;15.63;;;4.50;99.90;;;;;;5012134;28;20431;-77
2022/12/02 10:26:17;;;;;;;33.87;16.30;;;4.50;99.90;;;;;;5011876;28;20334;-77
2022/12/02 10:29:05;;;;;;;30.60;16.00;;;4.50;99.90;;;;;;5010601;28;21239;-77
2022/12/02 10:31:31;;;;;;;34.60;16.20;;;4.50;99.90;;;;;;5011837;28;20735;-78
2022/12/02 10:34:17;;;;;;;33.33;16.17;;;4.50;99.90;;;;;;5011800;28;20852;-78
2022/12/02 10:36:43;;;;;;;38.37;17.63;;;4.40;99.90;;;;;;5012053;28;20416;-78
2022/12/02 10:39:24;;;;;;;30.93;15.47;;;4.50;99.90;;;;;;5010449;28;20478;-78
2022/12/02 10:42:06;;;;;;;32.43;15.77;;;4.50;99.90;;;;;;5013621;28;20210;-79
2022/12/02 10:44:38;;;;;;;36.83;16.30;;;4.40;99.90;;;;;;5013923;28;20438;-77
2022/12/02 10:47:19;;;;;;;35.40;17.80;;;4.60;99.90;;;;;;5009987;28;20547;-77
2022/12/02 10:49:56;;;;;;;31.83;15.80;;;4.50;99.90;;;;;;5011716;28;20515;-79
2022/12/02 10:52:44;;;;;;;33.10;15.67;;;4.40;99.90;;;;;;5011134;28;20447;-77
2022/12/02 10:55:11;;;;;;;34.87;16.77;;;4.40;99.90;;;;;;5010415;28;20420;-78
2022/12/02 10:57:38;;;;;;;29.90;15.80;;;4.40;99.90;;;;;;5010513;28;20459;-78
2022/12/02 11:00:16;;;;;;;31.63;14.95;;;4.40;99.90;;;;;;5009242;28;20428;-78
2022/12/02 11:02:46;;;;;;;29.77;15.57;;;4.50;99.90;;;;;;5008893;28;20295;-79
2022/12/02 11:05:25;;;;;;;40.33;20.30;;;4.50;99.90;;;;;;5010873;28;20423;-78
2022/12/02 11:07:51;;;;;;;67.13;38.10;;;4.50;99.90;;;;;;5010466;28;20223;-78
2022/12/02 11:10:21;;;;;;;83.23;38.67;;;4.50;99.90;;;;;;5012699;28;20490;-77
2022/12/02 11:12:50;;;;;;;80.63;39.70;;;4.60;99.90;;;;;;5014897;28;20295;-77
2022/12/02 11:15:47;;;;;;;164.63;85.27;;;4.60;99.90;;;;;;5010398;28;20423;-77
2022/12/02 11:18:22;;;;;;;34.90;20.23;;;4.70;99.90;;;;;;5009744;28;21177;-78
2022/12/02 11:20:53;;;;;;;28.20;14.40;;;4.70;99.90;;;;;;5009515;28;20515;-78
2022/12/02 11:23:23;;;;;;;28.87;15.37;;;4.60;99.90;;;;;;5010395;28;20189;-78
2022/12/02 11:25:53;;;;;;;30.63;16.10;;;4.60;99.90;;;;;;5010927;28;21064;-78
2022/12/02 11:28:28;;;;;;;141.60;59.03;;;4.60;99.90;;;;;;5010093;28;21213;-77
2022/12/02 11:31:13;;;;;;;64.40;31.40;;;4.60;99.90;;;;;;5008714;28;20888;-78
2022/12/02 11:33:47;;;;;;;30.33;15.83;;;4.60;99.90;;;;;;5009912;28;20427;-77
2022/12/02 11:36:20;;;;;;;38.20;22.17;;;4.60;99.90;;;;;;5009963;28;21075;-78
2022/12/02 11:38:52;;;;;;;318.53;123.83;;;4.70;99.90;;;;;;5008408;28;20463;-78
2022/12/02 11:41:29;;;;;;;181.20;69.33;;;4.70;99.90;;;;;;5009668;28;20450;-78
2022/12/02 11:44:06;;;;;;;68.57;35.20;;;4.70;99.90;;;;;;5009773;28;20412;-78
2022/12/02 11:46:45;;;;;;;32.00;14.70;;;4.70;99.90;;;;;;5008445;28;20467;-78
2022/12/02 11:49:33;;;;;;;33.00;14.33;;;4.60;99.90;;;;;;5010761;28;20792;-77
2022/12/02 11:52:07;;;;;;;92.53;39.47;;;4.60;99.90;;;;;;5009430;28;20465;-78
2022/12/02 11:54:41;;;;;;;156.73;54.40;;;4.60;99.90;;;;;;5011420;28;20995;-77
2022/12/02 11:57:29;;;;;;;59.50;27.20;;;4.60;99.90;;;;;;5010179;28;20401;-79
2022/12/02 11:59:56;;;;;;;36.67;18.23;;;4.70;99.90;;;;;;4992336;28;20428;-77
2022/12/02 12:02:23;;;;;;;25.43;13.90;;;4.70;99.90;;;;;;4992398;28;20448;-78
2022/12/02 12:05:02;;;;;;;30.70;16.07;;;4.70;99.90;;;;;;5008535;28;20481;-78
2022/12/02 12:08:00;;;;;;;377.80;142.80;;;4.70;99.90;;;;;;5010977;28;20586;-78
2022/12/02 12:10:33;;;;;;;216.73;71.70;;;4.70;99.90;;;;;;4986765;28;20465;-78
2022/12/02 12:13:22;;;;;;;139.23;57.73;;;4.80;99.90;;;;;;5009945;28;20439;-78
2022/12/02 12:15:58;;;;;;;43.58;26.30;;;4.90;99.90;;;;;;5008839;28;20416;-77
2022/12/02 12:18:47;;;;;;;30.20;15.60;;;4.70;99.90;;;;;;5010327;28;20196;-78
2022/12/02 12:21:31;;;;;;;37.50;15.70;;;4.70;99.90;;;;;;4992525;28;20460;-77
2022/12/02 12:24:25;;;;;;;78.37;36.13;;;4.70;99.90;;;;;;5008310;28;20432;-78
2022/12/02 12:27:02;;;;;;;96.80;38.20;;;4.80;99.90;;;;;;5009712;28;20506;-79
2022/12/02 12:29:36;;;;;;;188.73;79.03;;;4.80;99.90;;;;;;5008115;28;20454;-78
2022/12/02 12:32:04;;;;;;;40.23;20.87;;;4.80;99.90;;;;;;5008593;28;20435;-78
2022/12/02 12:34:30;;;;;;;25.63;13.50;;;4.70;99.90;;;;;;5010038;28;20443;-78
2022/12/02 12:36:55;;;;;;;22.30;13.80;;;4.70;99.90;;;;;;5009972;28;20426;-78
2022/12/02 12:39:21;;;;;;;19.07;12.27;;;4.70;99.90;;;;;;4992481;28;20428;-79
2022/12/02 12:41:47;;;;;;;26.43;12.90;;;4.60;99.90;;;;;;5008436;28;20227;-78
2022/12/02 12:44:12;;;;;;;25.43;13.07;;;4.60;99.90;;;;;;4992379;28;20293;-78
2022/12/02 12:46:38;;;;;;;23.10;13.10;;;4.70;99.90;;;;;;4992111;28;20217;-78